Time;durP1;ratioP1;P1;durP2;ratioP2;P2;SDS_P1;SDS_P2;PMS_P1;PMS_P2;Temp;Humidity;BMP_temperature;BMP_pressure;BME280_temperature;BME280_humidity;BME280_pressure;Samples;Min_cycle;Max_cycle;Signal;HPM_P1;HPM_P2
2023/10/21 00:01:18;;;;;;;2.65;0.50;;;;;;;;;;5285328;28;20044;-73
2023/10/21 00:03:49;;;;;;;1.83;0.70;;;;;;;;;;5284609;28;20017;-73
2023/10/21 00:06:20;;;;;;;1.52;0.60;;;;;;;;;;5284247;28;20052;-73
2023/10/21 00:08:51;;;;;;;2.13;0.90;;;;;;;;;;5284698;28;20070;-73
2023/10/21 00:11:22;;;;;;;3.40;0.70;;;;;;;;;;5285192;28;20021;-73
2023/10/21 00:13:54;;;;;;;3.85;0.80;;;;;;;;;;5283712;28;20290;-73
2023/10/21 00:16:25;;;;;;;2.47;0.80;;;;;;;;;;5284693;28;20016;-73
2023/10/21 00:18:56;;;;;;;1.77;0.63;;;;;;;;;;5283669;28;20056;-73
2023/10/21 00:21:27;;;;;;;3.20;0.77;;;;;;;;;;5284567;28;20498;-73
2023/10/21 00:23:58;;;;;;;4.07;0.90;;;;;;;;;;5284619;28;20104;-73
2023/10/21 00:26:30;;;;;;;3.15;0.80;;;;;;;;;;5283109;28;20464;-73
2023/10/21 00:29:01;;;;;;;2.75;0.82;;;;;;;;;;5284433;28;20043;-73
2023/10/21 00:31:32;;;;;;;2.55;0.65;;;;;;;;;;5284174;28;20012;-73
2023/10/21 00:34:03;;;;;;;2.10;0.70;;;;;;;;;;5283345;28;20093;-73
2023/10/21 00:36:35;;;;;;;1.60;0.68;;;;;;;;;;5284565;28;20028;-73
2023/10/21 00:39:12;;;;;;;1.50;0.70;;;;;;;;;;5284299;28;20574;-73
2023/10/21 00:41:43;;;;;;;3.90;0.95;;;;;;;;;;5283437;28;20115;-73
2023/10/21 00:44:14;;;;;;;4.00;0.70;;;;;;;;;;5284027;28;20104;-73
2023/10/21 00:46:45;;;;;;;2.28;0.82;;;;;;;;;;5282594;28;20279;-73
2023/10/21 00:49:16;;;;;;;5.32;0.90;;;;;;;;;;5284411;28;20021;-73
2023/10/21 00:51:48;;;;;;;2.78;0.90;;;;;;;;;;5283607;28;20016;-73
2023/10/21 00:54:20;;;;;;;3.35;0.80;;;;;;;;;;5283531;28;20023;-73
2023/10/21 00:56:51;;;;;;;5.10;0.82;;;;;;;;;;5283397;28;20020;-73
2023/10/21 00:59:23;;;;;;;3.15;0.93;;;;;;;;;;5284242;28;20066;-73
2023/10/21 01:01:54;;;;;;;2.17;1.00;;;;;;;;;;5283029;28;20028;-73
2023/10/21 01:04:25;;;;;;;2.42;0.90;;;;;;;;;;5283675;28;20031;-73
2023/10/21 01:06:56;;;;;;;3.05;0.80;;;;;;;;;;5283569;28;20020;-73
2023/10/21 01:09:28;;;;;;;1.83;0.80;;;;;;;;;;5282751;28;20360;-73
2023/10/21 01:11:59;;;;;;;4.13;1.00;;;;;;;;;;5283662;28;20028;-73
2023/10/21 01:14:30;;;;;;;2.67;1.07;;;;;;;;;;5283521;28;20024;-73
2023/10/21 01:17:02;;;;;;;4.67;1.00;;;;;;;;;;5282617;28;20312;-74
2023/10/21 01:19:33;;;;;;;2.03;1.00;;;;;;;;;;5283422;28;20270;-73
2023/10/21 01:22:04;;;;;;;2.15;1.00;;;;;;;;;;5282375;28;20103;-73
2023/10/21 01:24:36;;;;;;;3.00;1.03;;;;;;;;;;5283489;28;20017;-71
2023/10/21 01:27:07;;;;;;;2.88;0.88;;;;;;;;;;5283246;28;20259;-71
2023/10/21 01:29:38;;;;;;;2.20;0.90;;;;;;;;;;5282320;28;20099;-72
2023/10/21 01:32:10;;;;;;;1.13;0.70;;;;;;;;;;5282901;28;20378;-72
2023/10/21 01:34:41;;;;;;;2.75;1.10;;;;;;;;;;5282916;28;20013;-71
2023/10/21 01:37:12;;;;;;;4.25;1.10;;;;;;;;;;5282360;28;20020;-72
2023/10/21 01:39:44;;;;;;;2.97;1.00;;;;;;;;;;5282110;28;20255;-71
2023/10/21 01:42:15;;;;;;;1.88;1.00;;;;;;;;;;5282955;28;20021;-71
2023/10/21 01:44:46;;;;;;;3.72;1.05;;;;;;;;;;5281729;28;20103;-72
2023/10/21 01:47:17;;;;;;;2.58;0.90;;;;;;;;;;5282993;28;20055;-71
2023/10/21 01:49:48;;;;;;;2.50;1.00;;;;;;;;;;5282579;28;20309;-72
2023/10/21 01:52:20;;;;;;;3.35;0.90;;;;;;;;;;5282140;28;20306;-72
2023/10/21 01:54:53;;;;;;;2.83;0.93;;;;;;;;;;5282426;28;20004;-72
2023/10/21 01:57:24;;;;;;;2.92;0.82;;;;;;;;;;5281733;28;20029;-72
2023/10/21 01:59:55;;;;;;;3.13;0.93;;;;;;;;;;5282742;28;20356;-72
2023/10/21 02:02:27;;;;;;;1.80;0.88;;;;;;;;;;5282597;28;20392;-72
2023/10/21 02:04:58;;;;;;;4.90;1.35;;;;;;;;;;5281682;28;20078;-72
2023/10/21 02:07:29;;;;;;;2.03;1.08;;;;;;;;;;5282393;28;20021;-73
2023/10/21 02:10:00;;;;;;;3.83;0.82;;;;;;;;;;5282295;28;20259;-73
2023/10/21 02:12:32;;;;;;;1.92;0.90;;;;;;;;;;5281603;28;20071;-72
2023/10/21 02:15:04;;;;;;;2.70;0.75;;;;;;;;;;5282339;28;20031;-72
2023/10/21 02:17:36;;;;;;;3.05;0.90;;;;;;;;;;5282212;28;20130;-71
2023/10/21 02:20:07;;;;;;;2.20;0.80;;;;;;;;;;5281323;28;20096;-72
2023/10/21 02:22:38;;;;;;;2.70;0.90;;;;;;;;;;5282033;28;20020;-72
2023/10/21 02:25:16;;;;;;;3.10;0.85;;;;;;;;;;5282220;28;20375;-72
2023/10/21 02:27:48;;;;;;;3.40;1.17;;;;;;;;;;5281869;28;20012;-72
2023/10/21 02:30:19;;;;;;;2.10;0.83;;;;;;;;;;5282401;28;20024;-71
2023/10/21 02:32:50;;;;;;;1.63;0.82;;;;;;;;;;5280641;28;20300;-72
2023/10/21 02:35:21;;;;;;;2.38;0.75;;;;;;;;;;5282434;28;20018;-72
2023/10/21 02:37:52;;;;;;;1.70;0.80;;;;;;;;;;5281621;28;20263;-72
2023/10/21 02:40:23;;;;;;;3.00;1.00;;;;;;;;;;5281173;28;20459;-73
2023/10/21 02:42:55;;;;;;;2.97;1.00;;;;;;;;;;5281810;28;20791;-72
2023/10/21 02:45:26;;;;;;;2.45;0.85;;;;;;;;;;5281729;28;20618;-73
2023/10/21 02:47:57;;;;;;;4.60;1.05;;;;;;;;;;5280821;28;20044;-72
2023/10/21 02:50:28;;;;;;;2.38;0.90;;;;;;;;;;5281268;28;20016;-73
2023/10/21 02:53:00;;;;;;;2.70;1.00;;;;;;;;;;5281630;28;20029;-73
2023/10/21 02:55:31;;;;;;;1.70;0.88;;;;;;;;;;5280942;28;20741;-72
2023/10/21 02:58:02;;;;;;;1.45;0.88;;;;;;;;;;5281916;28;20017;-72
2023/10/21 03:00:33;;;;;;;1.85;0.93;;;;;;;;;;5280889;28;20052;-72
2023/10/21 03:03:05;;;;;;;2.67;0.70;;;;;;;;;;5281787;28;20473;-73
2023/10/21 03:05:38;;;;;;;1.35;0.80;;;;;;;;;;5281727;28;20035;-72
2023/10/21 03:08:09;;;;;;;3.33;0.90;;;;;;;;;;5281020;28;20303;-72
2023/10/21 03:10:41;;;;;;;2.40;0.65;;;;;;;;;;5281855;28;20060;-72
2023/10/21 03:13:12;;;;;;;4.18;1.00;;;;;;;;;;5281467;28;20032;-72
2023/10/21 03:15:43;;;;;;;1.75;0.80;;;;;;;;;;5280908;28;20482;-72
2023/10/21 03:18:14;;;;;;;1.52;0.70;;;;;;;;;;5281927;28;20032;-72
2023/10/21 03:20:48;;;;;;;1.55;0.70;;;;;;;;;;5281053;28;20263;-73
2023/10/21 03:23:20;;;;;;;3.22;0.77;;;;;;;;;;5281178;28;20266;-73
2023/10/21 03:25:58;;;;;;;2.50;1.02;;;;;;;;;;5281389;28;20020;-73
2023/10/21 03:28:29;;;;;;;1.83;0.90;;;;;;;;;;5281236;28;20459;-73
2023/10/21 03:31:01;;;;;;;3.08;0.90;;;;;;;;;;5280937;28;20099;-72
2023/10/21 03:33:33;;;;;;;3.22;1.10;;;;;;;;;;5281530;28;20060;-73
2023/10/21 03:36:05;;;;;;;2.17;0.85;;;;;;;;;;5280664;28;20539;-73
2023/10/21 03:38:37;;;;;;;2.80;1.00;;;;;;;;;;5281507;28;20016;-73
2023/10/21 03:41:09;;;;;;;2.03;1.20;;;;;;;;;;5281462;28;20031;-73
2023/10/21 03:43:40;;;;;;;2.22;0.80;;;;;;;;;;5280554;28;20393;-73
2023/10/21 03:46:14;;;;;;;1.77;0.80;;;;;;;;;;5281268;28;20060;-72
2023/10/21 03:48:46;;;;;;;2.78;0.82;;;;;;;;;;5280945;28;20475;-73
2023/10/21 03:51:17;;;;;;;1.95;0.90;;;;;;;;;;5280687;28;20063;-73
2023/10/21 03:53:48;;;;;;;2.67;0.70;;;;;;;;;;5280787;28;20051;-73
2023/10/21 03:56:19;;;;;;;2.03;0.70;;;;;;;;;;5281440;28;20020;-73
2023/10/21 03:58:50;;;;;;;1.93;0.70;;;;;;;;;;5279945;28;20020;-73
2023/10/21 04:01:21;;;;;;;2.20;0.83;;;;;;;;;;5281357;28;20775;-72
2023/10/21 04:03:53;;;;;;;2.20;0.70;;;;;;;;;;5283651;28;20749;-72
2023/10/21 04:06:24;;;;;;;3.47;0.80;;;;;;;;;;5284777;28;20060;-72
2023/10/21 04:08:55;;;;;;;3.23;0.70;;;;;;;;;;5285066;28;20020;-73
2023/10/21 04:11:26;;;;;;;2.35;0.70;;;;;;;;;;5283853;28;20308;-73
2023/10/21 04:13:57;;;;;;;5.10;0.60;;;;;;;;;;5284344;28;20036;-73
2023/10/21 04:16:29;;;;;;;1.97;0.70;;;;;;;;;;5284449;28;20020;-72
2023/10/21 04:19:00;;;;;;;3.30;0.90;;;;;;;;;;5283469;28;20316;-72
2023/10/21 04:21:31;;;;;;;2.22;0.63;;;;;;;;;;5284442;28;20540;-72
2023/10/21 04:24:03;;;;;;;2.30;0.70;;;;;;;;;;5284501;28;20013;-72
2023/10/21 04:26:34;;;;;;;2.00;0.65;;;;;;;;;;5283639;28;20186;-73
2023/10/21 04:29:05;;;;;;;1.98;0.63;;;;;;;;;;5284333;28;20017;-73
2023/10/21 04:31:38;;;;;;;1.80;0.63;;;;;;;;;;5284261;28;20023;-72
2023/10/21 04:34:09;;;;;;;3.08;0.80;;;;;;;;;;5283280;28;20325;-72
2023/10/21 04:36:41;;;;;;;1.95;0.60;;;;;;;;;;5284319;28;20413;-72
2023/10/21 04:39:14;;;;;;;2.72;0.70;;;;;;;;;;5283583;28;20024;-72
2023/10/21 04:41:48;;;;;;;3.58;0.90;;;;;;;;;;5283896;28;20263;-73
2023/10/21 04:44:19;;;;;;;3.22;0.73;;;;;;;;;;5284608;28;20028;-72
2023/10/21 04:46:50;;;;;;;1.93;0.63;;;;;;;;;;5282929;28;20132;-73
2023/10/21 04:49:21;;;;;;;1.70;0.65;;;;;;;;;;5284281;28;20296;-72
2023/10/21 04:51:52;;;;;;;2.70;0.77;;;;;;;;;;5283465;28;20024;-72
2023/10/21 04:54:23;;;;;;;3.35;0.73;;;;;;;;;;5283088;28;20798;-72
2023/10/21 04:56:55;;;;;;;2.30;0.60;;;;;;;;;;5284031;28;20044;-71
2023/10/21 04:59:26;;;;;;;3.80;0.80;;;;;;;;;;5283649;28;20271;-72
2023/10/21 05:01:57;;;;;;;2.33;0.73;;;;;;;;;;5282869;28;20051;-72
2023/10/21 05:04:28;;;;;;;3.10;0.75;;;;;;;;;;5283651;28;20721;-72
2023/10/21 05:06:59;;;;;;;3.13;0.83;;;;;;;;;;5282836;28;20403;-73
2023/10/21 05:09:31;;;;;;;2.15;0.77;;;;;;;;;;5283847;28;20271;-73
2023/10/21 05:12:02;;;;;;;1.70;0.70;;;;;;;;;;5283630;28;20013;-73
2023/10/21 05:14:35;;;;;;;1.80;0.70;;;;;;;;;;5282668;28;20020;-72
2023/10/21 05:17:06;;;;;;;5.07;1.02;;;;;;;;;;5283267;28;20051;-73
2023/10/21 05:19:37;;;;;;;4.05;0.80;;;;;;;;;;5283366;28;20363;-72
2023/10/21 05:22:08;;;;;;;3.97;0.70;;;;;;;;;;5282625;28;20021;-72
2023/10/21 05:24:39;;;;;;;2.88;0.70;;;;;;;;;;5282514;28;20028;-73
2023/10/21 05:27:11;;;;;;;2.83;0.60;;;;;;;;;;5282679;28;20540;-73
2023/10/21 05:29:42;;;;;;;2.30;0.70;;;;;;;;;;5282246;28;21137;-72
2023/10/21 05:32:15;;;;;;;2.88;0.65;;;;;;;;;;5282832;28;20702;-72
2023/10/21 05:34:46;;;;;;;1.98;0.65;;;;;;;;;;5282821;28;20095;-72
2023/10/21 05:37:17;;;;;;;2.33;0.80;;;;;;;;;;5282783;28;20036;-73
2023/10/21 05:39:48;;;;;;;1.92;0.77;;;;;;;;;;5282759;28;20013;-73
2023/10/21 05:42:19;;;;;;;4.20;0.70;;;;;;;;;;5282090;28;20271;-73
2023/10/21 05:44:50;;;;;;;3.63;0.70;;;;;;;;;;5282343;28;20455;-72
2023/10/21 05:47:22;;;;;;;3.17;0.65;;;;;;;;;;5283140;28;20634;-72
2023/10/21 05:49:53;;;;;;;1.60;0.70;;;;;;;;;;5281640;28;20024;-72
2023/10/21 05:52:25;;;;;;;2.95;0.70;;;;;;;;;;5282477;28;20033;-71
2023/10/21 05:54:56;;;;;;;2.13;0.70;;;;;;;;;;5282134;28;20490;-74
2023/10/21 05:57:27;;;;;;;2.25;0.60;;;;;;;;;;5281842;28;20021;-71
2023/10/21 05:59:58;;;;;;;3.07;0.97;;;;;;;;;;5282500;28;20486;-72
2023/10/21 06:02:30;;;;;;;1.33;0.60;;;;;;;;;;5282501;28;20703;-73
2023/10/21 06:05:01;;;;;;;3.28;0.63;;;;;;;;;;5278844;28;20012;-71
2023/10/21 06:07:32;;;;;;;3.10;0.60;;;;;;;;;;5281918;28;20030;-72
2023/10/21 06:10:04;;;;;;;3.33;0.70;;;;;;;;;;5281775;28;20767;-73
2023/10/21 06:12:35;;;;;;;1.85;0.60;;;;;;;;;;5281079;28;20035;-73
2023/10/21 06:15:07;;;;;;;2.58;0.80;;;;;;;;;;5281926;28;20013;-71
2023/10/21 06:17:38;;;;;;;1.77;0.60;;;;;;;;;;5281143;28;20039;-73
2023/10/21 06:20:10;;;;;;;2.30;0.80;;;;;;;;;;5280794;28;20017;-72
2023/10/21 06:22:41;;;;;;;2.28;0.60;;;;;;;;;;5280119;28;20017;-72
2023/10/21 06:25:14;;;;;;;3.60;0.83;;;;;;;;;;5279982;28;20493;-72
2023/10/21 06:27:45;;;;;;;3.03;0.60;;;;;;;;;;5281872;28;20333;-72
2023/10/21 06:30:16;;;;;;;3.50;0.60;;;;;;;;;;5282421;28;20039;-71
2023/10/21 06:32:47;;;;;;;1.75;0.60;;;;;;;;;;5280633;28;20174;-73
2023/10/21 06:35:19;;;;;;;2.42;0.55;;;;;;;;;;5282406;28;20008;-73
2023/10/21 06:37:51;;;;;;;3.20;0.57;;;;;;;;;;5281530;28;20027;-72
2023/10/21 06:40:22;;;;;;;5.53;0.70;;;;;;;;;;5281297;28;20095;-72
2023/10/21 06:42:55;;;;;;;6.00;0.60;;;;;;;;;;5281428;28;20158;-73
2023/10/21 06:45:26;;;;;;;2.72;0.60;;;;;;;;;;5281337;28;20029;-72
2023/10/21 06:47:57;;;;;;;2.13;0.50;;;;;;;;;;5281966;28;20048;-73
2023/10/21 06:50:29;;;;;;;2.10;0.70;;;;;;;;;;5282929;28;20016;-73
2023/10/21 06:53:00;;;;;;;2.35;0.52;;;;;;;;;;5281879;28;20028;-72
2023/10/21 06:55:40;;;;;;;1.63;0.60;;;;;;;;;;5282047;28;20058;-73
2023/10/21 06:58:11;;;;;;;4.03;0.60;;;;;;;;;;5283054;28;20569;-73
2023/10/21 07:00:42;;;;;;;2.25;0.60;;;;;;;;;;5281841;28;20173;-74
2023/10/21 07:03:14;;;;;;;3.60;0.67;;;;;;;;;;5281305;28;20028;-72
2023/10/21 07:05:45;;;;;;;4.00;0.50;;;;;;;;;;5281067;28;20255;-72
2023/10/21 07:08:16;;;;;;;3.60;0.50;;;;;;;;;;5280936;28;20012;-72
2023/10/21 07:10:47;;;;;;;2.67;0.50;;;;;;;;;;5281560;28;20028;-74
2023/10/21 07:13:19;;;;;;;1.65;0.47;;;;;;;;;;5283232;28;20024;-73
2023/10/21 07:15:51;;;;;;;1.80;0.50;;;;;;;;;;5280241;28;20052;-73
2023/10/21 07:18:22;;;;;;;1.98;0.30;;;;;;;;;;5282079;28;20387;-73
2023/10/21 07:20:57;;;;;;;3.10;0.50;;;;;;;;;;5280492;28;20021;-73
2023/10/21 07:23:28;;;;;;;2.25;0.50;;;;;;;;;;5282291;28;20023;-72
2023/10/21 07:25:59;;;;;;;2.25;0.30;;;;;;;;;;5281727;28;20008;-71
2023/10/21 07:28:31;;;;;;;1.00;0.20;;;;;;;;;;5280696;28;20020;-72
2023/10/21 07:31:03;;;;;;;0.95;0.10;;;;;;;;;;5281368;28;20340;-73
2023/10/21 07:33:34;;;;;;;0.80;0.20;;;;;;;;;;5282122;28;20024;-72
2023/10/21 07:36:05;;;;;;;0.73;0.08;;;;;;;;;;5280952;28;20095;-72
2023/10/21 07:38:36;;;;;;;1.10;0.10;;;;;;;;;;5284960;28;20514;-72
2023/10/21 07:41:11;;;;;;;0.82;0.10;;;;;;;;;;5285430;28;20385;-72
2023/10/21 07:43:42;;;;;;;0.82;0.10;;;;;;;;;;5284813;28;20161;-72
2023/10/21 07:46:14;;;;;;;0.53;0.10;;;;;;;;;;5284959;28;20101;-71
2023/10/21 07:48:45;;;;;;;0.30;0.10;;;;;;;;;;5284481;28;20263;-72
2023/10/21 07:51:16;;;;;;;0.60;0.10;;;;;;;;;;5285203;28;20031;-70
2023/10/21 07:53:48;;;;;;;0.30;0.10;;;;;;;;;;5284641;28;20029;-69
2023/10/21 07:56:19;;;;;;;0.60;0.10;;;;;;;;;;5284945;28;20486;-69
2023/10/21 07:58:50;;;;;;;0.73;0.13;;;;;;;;;;5284704;28;20051;-73
2023/10/21 08:01:22;;;;;;;0.35;0.10;;;;;;;;;;5285502;28;20266;-73
2023/10/21 08:03:53;;;;;;;3.08;0.10;;;;;;;;;;5284282;28;20341;-74
2023/10/21 08:06:24;;;;;;;0.73;0.10;;;;;;;;;;5285222;28;20025;-75
2023/10/21 08:08:56;;;;;;;0.30;0.10;;;;;;;;;;5284847;28;20027;-74
2023/10/21 08:11:27;;;;;;;0.40;0.10;;;;;;;;;;5283962;28;20059;-74
2023/10/21 08:13:59;;;;;;;1.10;0.10;;;;;;;;;;5283139;28;20178;-73
2023/10/21 08:16:30;;;;;;;0.57;0.10;;;;;;;;;;5284214;28;20017;-72
2023/10/21 08:19:01;;;;;;;1.23;0.10;;;;;;;;;;5283238;28;20387;-72
2023/10/21 08:21:35;;;;;;;0.80;0.10;;;;;;;;;;5283883;28;20350;-73
2023/10/21 08:24:07;;;;;;;1.75;0.10;;;;;;;;;;5282075;28;20024;-73
2023/10/21 08:26:38;;;;;;;0.55;0.10;;;;;;;;;;5284193;28;20021;-72
2023/10/21 08:29:10;;;;;;;1.02;0.20;;;;;;;;;;5284129;28;20016;-72
2023/10/21 08:31:41;;;;;;;1.55;0.10;;;;;;;;;;5283557;28;20147;-72
2023/10/21 08:34:13;;;;;;;0.40;0.10;;;;;;;;;;5284138;28;20036;-72
2023/10/21 08:36:44;;;;;;;1.42;0.17;;;;;;;;;;5283934;28;20108;-72
2023/10/21 08:39:15;;;;;;;1.48;0.15;;;;;;;;;;5283473;28;20478;-70
2023/10/21 08:41:48;;;;;;;0.90;0.10;;;;;;;;;;5283752;28;20012;-69
2023/10/21 08:44:20;;;;;;;0.65;0.10;;;;;;;;;;5284427;28;20267;-69
2023/10/21 08:46:54;;;;;;;0.73;0.10;;;;;;;;;;5282735;28;20048;-69
2023/10/21 08:49:25;;;;;;;0.93;0.10;;;;;;;;;;5283317;28;20098;-69
2023/10/21 08:51:58;;;;;;;0.65;0.10;;;;;;;;;;5283681;28;20046;-69
2023/10/21 08:54:31;;;;;;;1.50;0.10;;;;;;;;;;5283172;28;20036;-69
2023/10/21 08:57:03;;;;;;;1.40;0.10;;;;;;;;;;5283608;28;20036;-69
2023/10/21 08:59:34;;;;;;;2.33;0.10;;;;;;;;;;5282986;28;20035;-70
2023/10/21 09:02:05;;;;;;;0.90;0.10;;;;;;;;;;5283586;28;20021;-70
2023/10/21 09:04:36;;;;;;;2.72;0.20;;;;;;;;;;5283675;28;20119;-71
2023/10/21 09:07:08;;;;;;;0.82;0.10;;;;;;;;;;5282992;28;20071;-72
2023/10/21 09:09:39;;;;;;;0.90;0.17;;;;;;;;;;5283466;28;20016;-70
2023/10/21 09:12:13;;;;;;;1.65;0.13;;;;;;;;;;5283159;28;20270;-70
2023/10/21 09:14:59;;;;;;;0.35;0.10;;;;;;;;;;5282319;28;20078;-71
2023/10/21 09:17:34;;;;;;;1.70;0.20;;;;;;;;;;5283409;28;20044;-70
2023/10/21 09:20:07;;;;;;;1.05;0.10;;;;;;;;;;5283202;28;20028;-70
2023/10/21 09:22:39;;;;;;;1.00;0.20;;;;;;;;;;5282496;28;20161;-70
2023/10/21 09:25:14;;;;;;;2.53;0.10;;;;;;;;;;5283156;28;20467;-70
2023/10/21 09:27:46;;;;;;;3.45;0.28;;;;;;;;;;5282131;28;20024;-70
2023/10/21 09:30:19;;;;;;;1.73;0.20;;;;;;;;;;5283454;28;20024;-70
2023/10/21 09:32:51;;;;;;;2.20;0.20;;;;;;;;;;5282459;28;20024;-71
2023/10/21 09:35:30;;;;;;;2.55;0.10;;;;;;;;;;5282453;28;20455;-70
2023/10/21 09:38:16;;;;;;;1.50;0.20;;;;;;;;;;5282820;28;20024;-70
2023/10/21 09:40:47;;;;;;;2.25;0.13;;;;;;;;;;5282555;28;20075;-70
2023/10/21 09:43:20;;;;;;;2.35;0.15;;;;;;;;;;5282502;28;20052;-69
2023/10/21 09:45:52;;;;;;;1.02;0.10;;;;;;;;;;5282406;28;20044;-72
2023/10/21 09:48:25;;;;;;;0.80;0.10;;;;;;;;;;5281541;28;20064;-71
2023/10/21 09:50:57;;;;;;;1.00;0.10;;;;;;;;;;5282739;28;20043;-71
2023/10/21 09:53:33;;;;;;;1.90;0.30;;;;;;;;;;5282243;28;20032;-71
2023/10/21 09:56:07;;;;;;;1.42;0.10;;;;;;;;;;5281326;28;20485;-71
2023/10/21 09:58:40;;;;;;;1.45;0.20;;;;;;;;;;5282035;28;20154;-72
2023/10/21 10:01:12;;;;;;;2.75;0.20;;;;;;;;;;5282031;28;20084;-71
2023/10/21 10:03:44;;;;;;;2.00;0.10;;;;;;;;;;5282954;28;20096;-72
2023/10/21 10:06:18;;;;;;;2.88;0.25;;;;;;;;;;5282540;28;20395;-72
2023/10/21 10:08:49;;;;;;;3.38;0.40;;;;;;;;;;5282077;28;20024;-72
2023/10/21 10:11:23;;;;;;;0.75;0.10;;;;;;;;;;5282512;28;20028;-71
2023/10/21 10:13:54;;;;;;;1.33;0.20;;;;;;;;;;5282318;28;20028;-72
2023/10/21 10:16:25;;;;;;;2.55;0.20;;;;;;;;;;5281780;28;20020;-71
2023/10/21 10:18:57;;;;;;;2.88;0.28;;;;;;;;;;5281880;28;20024;-70
2023/10/21 10:21:28;;;;;;;3.03;0.30;;;;;;;;;;5281644;28;20073;-72
2023/10/21 10:24:02;;;;;;;1.92;0.20;;;;;;;;;;5281088;28;20025;-72
2023/10/21 10:26:36;;;;;;;2.50;0.25;;;;;;;;;;5282007;28;20100;-71
2023/10/21 10:29:25;;;;;;;2.42;0.20;;;;;;;;;;5281875;28;20016;-72
2023/10/21 10:31:56;;;;;;;;;;;;;;;;;;5281457;28;20142;-71
2023/10/21 10:34:27;;;;;;;2.53;0.20;;;;;;;;;;5281937;28;19947;-71
2023/10/21 10:36:58;;;;;;;3.77;0.40;;;;;;;;;;5282047;28;20024;-73
2023/10/21 10:39:39;;;;;;;6.37;0.50;;;;;;;;;;5281049;28;20263;-73
2023/10/21 10:42:10;;;;;;;2.08;0.20;;;;;;;;;;5281754;28;20265;-69
2023/10/21 10:44:42;;;;;;;2.13;0.30;;;;;;;;;;5281366;28;20091;-71
2023/10/21 10:47:13;;;;;;;5.18;0.40;;;;;;;;;;5281764;28;20071;-73
2023/10/21 10:49:57;;;;;;;1.90;0.30;;;;;;;;;;5281632;28;20402;-72
2023/10/21 10:52:35;;;;;;;2.47;0.30;;;;;;;;;;5280677;28;20119;-72
2023/10/21 10:55:10;;;;;;;2.87;0.40;;;;;;;;;;5281938;28;20077;-73
2023/10/21 10:57:43;;;;;;;2.40;0.22;;;;;;;;;;5281949;28;20013;-73
2023/10/21 11:00:20;;;;;;;1.58;0.30;;;;;;;;;;5280872;28;20024;-72
2023/10/21 11:02:51;;;;;;;3.67;0.35;;;;;;;;;;5281255;28;20055;-73
2023/10/21 11:05:22;;;;;;;2.78;0.20;;;;;;;;;;5281780;28;20052;-70
2023/10/21 11:07:55;;;;;;;3.03;0.40;;;;;;;;;;5280755;28;20017;-72
2023/10/21 11:10:26;;;;;;;3.65;0.30;;;;;;;;;;5281587;28;20378;-71
2023/10/21 11:12:58;;;;;;;6.28;0.50;;;;;;;;;;5285196;28;20074;-71
2023/10/21 11:15:29;;;;;;;2.92;0.30;;;;;;;;;;5285537;28;20036;-71
2023/10/21 11:18:00;;;;;;;2.22;0.30;;;;;;;;;;5285871;28;20157;-72
2023/10/21 11:20:32;;;;;;;3.83;0.40;;;;;;;;;;5285078;28;20016;-72
2023/10/21 11:23:10;;;;;;;4.07;0.40;;;;;;;;;;5285560;28;20238;-72
2023/10/21 11:25:41;;;;;;;3.95;0.30;;;;;;;;;;5285657;28;20352;-72
2023/10/21 11:28:14;;;;;;;2.95;0.32;;;;;;;;;;5284814;28;20016;-73
2023/10/21 11:30:46;;;;;;;3.15;0.30;;;;;;;;;;5285380;28;20438;-71
2023/10/21 11:33:17;;;;;;;3.13;0.30;;;;;;;;;;5285778;28;20060;-73
2023/10/21 11:35:50;;;;;;;4.25;0.32;;;;;;;;;;5284371;28;20023;-72
2023/10/21 11:38:22;;;;;;;6.07;0.43;;;;;;;;;;5285482;28;20056;-73
2023/10/21 11:40:53;;;;;;;3.80;0.32;;;;;;;;;;5284003;28;20100;-72
2023/10/21 11:43:25;;;;;;;3.75;0.30;;;;;;;;;;5285589;28;20494;-72
2023/10/21 11:45:57;;;;;;;6.15;0.57;;;;;;;;;;5285158;28;20016;-75
2023/10/21 11:48:29;;;;;;;3.22;0.30;;;;;;;;;;5284050;28;20051;-73
2023/10/21 11:51:01;;;;;;;2.30;0.30;;;;;;;;;;5285027;28;20012;-75
2023/10/21 11:53:32;;;;;;;3.70;0.40;;;;;;;;;;5285142;28;20032;-76
2023/10/21 12:08:10;;;;;;;2.58;0.30;;;;;;;;;;5284710;28;20077;-73
2023/10/21 12:16:02;;;;;;;3.13;0.50;;;;;;;;;;5284354;28;20024;-75
2023/10/21 12:19:05;;;;;;;;;;;;;;;;;;5285159;28;20021;-75
2023/10/21 12:24:41;;;;;;;2.42;0.30;;;;;;;;;;5282769;28;20391;-75
2023/10/21 12:35:38;;;;;;;6.13;0.40;;;;;;;;;;5284920;28;20026;-74
2023/10/21 12:38:38;;;;;;;4.25;0.40;;;;;;;;;;5283542;28;20467;-74
2023/10/21 12:43:41;;;;;;;3.17;0.40;;;;;;;;;;5284392;28;20028;-73
2023/10/21 12:46:18;;;;;;;5.03;0.40;;;;;;;;;;5283203;28;20095;-74
2023/10/21 12:48:52;;;;;;;3.15;0.63;;;;;;;;;;5283801;28;20054;-74
2023/10/21 12:51:26;;;;;;;2.85;0.40;;;;;;;;;;5283069;28;20113;-74
2023/10/21 12:53:58;;;;;;;3.00;0.38;;;;;;;;;;5283981;28;20360;-74
2023/10/21 12:56:29;;;;;;;2.15;0.30;;;;;;;;;;5284227;28;20032;-75
2023/10/21 12:59:00;;;;;;;2.72;0.40;;;;;;;;;;5282914;28;20025;-74
2023/10/21 13:01:38;;;;;;;3.38;0.40;;;;;;;;;;5283944;28;20017;-74
2023/10/21 13:04:10;;;;;;;3.60;0.70;;;;;;;;;;5283685;28;20467;-74
2023/10/21 13:06:42;;;;;;;3.25;0.40;;;;;;;;;;5270453;28;20017;-73
2023/10/21 13:09:20;;;;;;;4.35;0.50;;;;;;;;;;5283372;28;20073;-74
2023/10/21 13:11:52;;;;;;;7.03;0.65;;;;;;;;;;5283007;28;20047;-74
2023/10/21 13:14:27;;;;;;;4.97;0.50;;;;;;;;;;5270690;28;20025;-74
2023/10/21 13:16:58;;;;;;;5.18;1.08;;;;;;;;;;5262568;28;20025;-74
2023/10/21 13:19:29;;;;;;;2.55;0.40;;;;;;;;;;5261178;28;20139;-74
2023/10/21 13:22:01;;;;;;;5.43;0.80;;;;;;;;;;5262267;28;20465;-74
2023/10/21 13:24:33;;;;;;;4.25;0.60;;;;;;;;;;5261204;28;20615;-74
2023/10/21 13:27:07;;;;;;;6.38;0.60;;;;;;;;;;5261397;28;20028;-72
2023/10/21 13:29:38;;;;;;;5.18;0.55;;;;;;;;;;5262028;28;20074;-72
2023/10/21 13:32:10;;;;;;;5.07;0.60;;;;;;;;;;5261547;28;20017;-73
2023/10/21 13:34:41;;;;;;;5.55;0.60;;;;;;;;;;5261177;28;20036;-70
2023/10/21 13:37:14;;;;;;;5.57;0.60;;;;;;;;;;5262039;28;20012;-70
2023/10/21 13:39:45;;;;;;;5.32;0.40;;;;;;;;;;5261551;28;20263;-72
2023/10/21 13:42:16;;;;;;;6.20;0.50;;;;;;;;;;5260795;28;20023;-72
2023/10/21 13:44:48;;;;;;;2.83;0.60;;;;;;;;;;5261634;28;20260;-72
2023/10/21 13:47:20;;;;;;;9.18;0.80;;;;;;;;;;5262341;28;20295;-72
2023/10/21 13:49:51;;;;;;;6.03;0.57;;;;;;;;;;5260873;28;20020;-72
2023/10/21 13:52:22;;;;;;;5.20;0.60;;;;;;;;;;5262365;28;20260;-73
2023/10/21 13:54:53;;;;;;;5.32;0.50;;;;;;;;;;5260998;28;20378;-73
2023/10/21 13:57:24;;;;;;;5.40;0.70;;;;;;;;;;5261904;28;20021;-72
2023/10/21 13:59:55;;;;;;;7.57;1.00;;;;;;;;;;5261637;28;20268;-73
2023/10/21 14:02:27;;;;;;;5.43;0.90;;;;;;;;;;5260497;28;20856;-71
2023/10/21 14:04:58;;;;;;;6.20;0.70;;;;;;;;;;5261849;28;20665;-73
2023/10/21 14:07:29;;;;;;;3.87;0.50;;;;;;;;;;5261834;28;20043;-72
2023/10/21 14:10:00;;;;;;;5.35;0.63;;;;;;;;;;5260594;28;20268;-72
2023/10/21 14:12:31;;;;;;;4.50;0.90;;;;;;;;;;5261374;28;20468;-71
2023/10/21 14:15:10;;;;;;;4.57;0.80;;;;;;;;;;5261667;28;20622;-72
2023/10/21 14:17:41;;;;;;;5.22;1.02;;;;;;;;;;5260908;28;20009;-72
2023/10/21 14:20:12;;;;;;;6.53;0.93;;;;;;;;;;5261550;28;20099;-72
2023/10/21 14:22:43;;;;;;;7.97;1.05;;;;;;;;;;5260364;28;20255;-73
2023/10/21 14:25:15;;;;;;;6.40;0.90;;;;;;;;;;5261238;28;20028;-73
2023/10/21 14:27:46;;;;;;;4.33;0.60;;;;;;;;;;5260858;28;20107;-72
2023/10/21 14:30:19;;;;;;;4.82;0.80;;;;;;;;;;5260917;28;20831;-72
2023/10/21 14:32:50;;;;;;;8.40;0.90;;;;;;;;;;5260564;28;20025;-71
2023/10/21 14:35:21;;;;;;;5.40;0.60;;;;;;;;;;5261520;28;20375;-72
2023/10/21 14:37:52;;;;;;;3.85;0.70;;;;;;;;;;5259645;28;20634;-72
2023/10/21 14:40:23;;;;;;;5.47;0.95;;;;;;;;;;5261312;28;20017;-72
2023/10/21 14:42:55;;;;;;;6.18;0.98;;;;;;;;;;5260668;28;20268;-72
2023/10/21 14:45:26;;;;;;;5.18;0.80;;;;;;;;;;5259945;28;20009;-73
2023/10/21 14:48:01;;;;;;;6.43;0.90;;;;;;;;;;5260872;28;20053;-73
2023/10/21 14:50:32;;;;;;;7.07;1.10;;;;;;;;;;5260956;28;20272;-73
2023/10/21 14:53:03;;;;;;;5.78;0.70;;;;;;;;;;5260266;28;20029;-73
2023/10/21 14:55:35;;;;;;;8.93;1.13;;;;;;;;;;5260987;28;20044;-72
2023/10/21 14:58:09;;;;;;;5.85;0.80;;;;;;;;;;5260264;28;20013;-71
2023/10/21 15:00:42;;;;;;;5.65;1.00;;;;;;;;;;5260741;28;20439;-71
2023/10/21 15:03:18;;;;;;;7.60;1.65;;;;;;;;;;5261051;28;20040;-70
2023/10/21 15:05:49;;;;;;;5.05;0.80;;;;;;;;;;5259878;28;20096;-71
2023/10/21 15:08:20;;;;;;;5.40;0.88;;;;;;;;;;5261049;28;20100;-71
2023/10/21 15:10:52;;;;;;;3.63;0.50;;;;;;;;;;5260405;28;20029;-71
2023/10/21 15:13:23;;;;;;;5.40;0.80;;;;;;;;;;5260092;28;20518;-71
2023/10/21 15:15:59;;;;;;;4.72;0.95;;;;;;;;;;5260951;28;20487;-71
2023/10/21 15:18:30;;;;;;;5.88;0.60;;;;;;;;;;5260779;28;20049;-71
2023/10/21 15:21:02;;;;;;;5.45;0.50;;;;;;;;;;5259778;28;20048;-71
2023/10/21 15:23:34;;;;;;;4.18;0.60;;;;;;;;;;5260496;28;20031;-70
2023/10/21 15:26:12;;;;;;;4.55;1.00;;;;;;;;;;5259455;28;20092;-70
2023/10/21 15:28:44;;;;;;;3.47;0.60;;;;;;;;;;5273360;28;20043;-71
2023/10/21 15:31:17;;;;;;;7.65;0.70;;;;;;;;;;5281208;28;20012;-72
2023/10/21 15:33:48;;;;;;;3.58;0.70;;;;;;;;;;5279935;28;20115;-71
2023/10/21 15:36:19;;;;;;;6.65;0.60;;;;;;;;;;5281401;28;20112;-71
2023/10/21 15:38:53;;;;;;;6.40;0.60;;;;;;;;;;5281138;28;20814;-72
2023/10/21 15:41:25;;;;;;;4.05;0.40;;;;;;;;;;5280534;28;20064;-70
2023/10/21 15:43:59;;;;;;;4.38;0.50;;;;;;;;;;5281350;28;20028;-71